Time;durP1;ratioP1;P1;durP2;ratioP2;P2;SDS_P1;SDS_P2;PMS_P1;PMS_P2;Temp;Humidity;BMP_temperature;BMP_pressure;BME280_temperature;BME280_humidity;BME280_pressure;Samples;Min_cycle;Max_cycle;Signal;HPM_P1;HPM_P2
2021/11/29 00:00:32;;;;;;;10.95;8.85;;;3.30;99.90;;;;;;6252412;22;20188;-53
2021/11/29 00:03:04;;;;;;;10.18;8.05;;;3.60;99.90;;;;;;6252955;22;20153;-53
2021/11/29 00:05:31;;;;;;;9.93;7.78;;;3.80;99.90;;;;;;6252674;22;20240;-53
2021/11/29 00:08:00;;;;;;;10.20;8.23;;;3.70;99.90;;;;;;6241812;22;20161;-54
2021/11/29 00:10:26;;;;;;;8.88;7.28;;;4.10;99.90;;;;;;6242290;22;20173;-53
2021/11/29 00:12:52;;;;;;;12.38;8.93;;;3.60;99.90;;;;;;6253510;22;20145;-53
2021/11/29 00:15:19;;;;;;;8.70;7.80;;;3.60;99.90;;;;;;6252837;22;20156;-53
2021/11/29 00:17:45;;;;;;;9.15;7.55;;;3.80;99.90;;;;;;6252226;22;20555;-53
2021/11/29 00:20:12;;;;;;;9.60;8.40;;;2.80;99.90;;;;;;6252059;23;20173;-52
2021/11/29 00:22:38;;;;;;;9.30;8.23;;;3.50;99.90;;;;;;6253112;22;20388;-53
2021/11/29 00:25:06;;;;;;;10.20;7.55;;;3.50;99.90;;;;;;6242260;22;20631;-53
2021/11/29 00:27:31;;;;;;;11.38;9.15;;;3.30;99.90;;;;;;6252542;22;20156;-53
2021/11/29 00:29:57;;;;;;;10.87;8.80;;;3.10;99.90;;;;;;6253110;22;20488;-52
2021/11/29 00:32:24;;;;;;;11.40;8.90;;;3.00;99.90;;;;;;6253196;22;20417;-54
2021/11/29 00:34:50;;;;;;;15.07;11.27;;;3.30;99.90;;;;;;6253254;22;20398;-53
2021/11/29 00:37:15;;;;;;;14.40;11.43;;;2.80;99.90;;;;;;6241921;22;20631;-53
2021/11/29 00:39:41;;;;;;;15.00;10.90;;;3.40;99.90;;;;;;6251886;23;20160;-54
2021/11/29 00:42:07;;;;;;;13.77;10.80;;;3.40;99.90;;;;;;6242696;23;20412;-53
2021/11/29 00:44:33;;;;;;;14.00;11.57;;;3.60;99.90;;;;;;6252315;23;20259;-54
2021/11/29 00:46:58;;;;;;;14.40;10.63;;;3.80;99.90;;;;;;6252124;23;20279;-54
2021/11/29 00:49:24;;;;;;;16.45;11.35;;;3.70;99.90;;;;;;6252461;22;20141;-53
2021/11/29 00:51:50;;;;;;;13.53;10.83;;;3.20;99.90;;;;;;6252695;23;20243;-54
2021/11/29 00:54:16;;;;;;;15.30;12.20;;;4.10;99.90;;;;;;6252893;23;20153;-54
2021/11/29 00:56:41;;;;;;;16.27;12.30;;;4.00;99.90;;;;;;6252961;23;20153;-54
2021/11/29 00:59:08;;;;;;;16.33;11.93;;;4.00;99.90;;;;;;6241974;23;20153;-54
2021/11/29 01:01:34;;;;;;;18.00;12.93;;;3.80;99.90;;;;;;6252764;22;20252;-54
2021/11/29 01:04:00;;;;;;;17.08;13.10;;;4.00;99.90;;;;;;6251983;22;20169;-54
2021/11/29 01:06:25;;;;;;;14.77;11.43;;;3.80;99.90;;;;;;6241722;23;20175;-54
2021/11/29 01:08:51;;;;;;;17.73;12.93;;;3.30;99.90;;;;;;6242406;23;20153;-54
2021/11/29 01:11:17;;;;;;;17.87;13.33;;;3.80;99.90;;;;;;6252714;23;20654;-54
2021/11/29 01:13:43;;;;;;;17.03;12.83;;;3.50;99.90;;;;;;6253060;23;20145;-54
2021/11/29 01:16:09;;;;;;;16.20;11.50;;;3.60;99.90;;;;;;6242315;22;20304;-54
2021/11/29 01:18:35;;;;;;;15.35;12.65;;;3.10;99.90;;;;;;6251762;22;20268;-54
2021/11/29 01:21:02;;;;;;;16.75;13.00;;;3.90;99.90;;;;;;6251738;22;20599;-54
2021/11/29 01:23:27;;;;;;;15.07;11.82;;;3.50;99.90;;;;;;6242107;22;20530;-54
2021/11/29 01:25:54;;;;;;;15.80;12.33;;;3.90;99.90;;;;;;6252059;23;20256;-54
2021/11/29 01:28:22;;;;;;;18.70;13.10;;;3.70;99.90;;;;;;6252204;22;20323;-54
2021/11/29 01:30:48;;;;;;;17.30;13.32;;;3.70;99.90;;;;;;6252844;23;20169;-53
2021/11/29 01:33:14;;;;;;;16.95;13.32;;;3.60;99.90;;;;;;6252657;22;20484;-54
2021/11/29 01:35:40;;;;;;;18.17;13.25;;;3.60;99.90;;;;;;6252506;22;20604;-54
2021/11/29 01:38:07;;;;;;;17.25;12.65;;;3.70;99.90;;;;;;6251583;22;20586;-53
2021/11/29 01:40:32;;;;;;;18.08;14.60;;;3.30;99.90;;;;;;6251600;22;20169;-53
2021/11/29 01:43:09;;;;;;;19.37;14.70;;;3.80;99.90;;;;;;6252156;23;20210;-54
2021/11/29 01:45:44;;;;;;;17.52;13.90;;;3.50;99.90;;;;;;6251885;22;20643;-54
2021/11/29 01:48:11;;;;;;;19.65;13.75;;;3.60;99.90;;;;;;6251289;22;20134;-54
2021/11/29 01:50:39;;;;;;;21.40;14.68;;;3.80;99.90;;;;;;6252653;22;20189;-54
2021/11/29 01:53:05;;;;;;;19.75;13.95;;;3.90;99.90;;;;;;6252863;22;20146;-54
2021/11/29 01:55:32;;;;;;;18.48;13.82;;;3.80;99.90;;;;;;6252003;22;20228;-54
2021/11/29 01:57:58;;;;;;;18.60;13.73;;;3.80;99.90;;;;;;6240249;23;20184;-54
2021/11/29 02:00:27;;;;;;;20.83;14.63;;;3.70;99.90;;;;;;6251956;23;20173;-54
2021/11/29 02:02:55;;;;;;;22.42;15.05;;;3.70;99.90;;;;;;6267925;22;20161;-54
2021/11/29 02:05:22;;;;;;;19.70;14.13;;;3.70;99.90;;;;;;6253913;23;20176;-54
2021/11/29 02:07:48;;;;;;;17.10;13.45;;;3.70;99.90;;;;;;6242985;22;20573;-54
2021/11/29 02:10:15;;;;;;;16.70;13.43;;;2.90;99.90;;;;;;6254164;23;20232;-54
2021/11/29 02:12:41;;;;;;;19.65;14.63;;;3.50;99.90;;;;;;6254549;22;20380;-55
2021/11/29 02:15:09;;;;;;;19.97;15.37;;;3.80;99.90;;;;;;6254700;22;20497;-54
2021/11/29 02:17:35;;;;;;;20.75;14.95;;;3.70;99.90;;;;;;6253080;22;20403;-54
2021/11/29 02:20:02;;;;;;;19.63;14.93;;;4.10;99.90;;;;;;6254191;23;20150;-53
2021/11/29 02:22:28;;;;;;;18.92;13.25;;;3.90;99.90;;;;;;6244133;22;20172;-53
2021/11/29 02:24:54;;;;;;;20.90;15.57;;;3.80;99.90;;;;;;6253502;22;20181;-54
2021/11/29 02:27:19;;;;;;;20.63;14.37;;;4.00;99.90;;;;;;6243393;23;20737;-54
2021/11/29 02:29:45;;;;;;;20.20;14.70;;;3.90;99.90;;;;;;6254159;23;20164;-54
2021/11/29 02:32:11;;;;;;;19.38;14.80;;;3.80;99.90;;;;;;6254475;23;20168;-54
2021/11/29 02:34:37;;;;;;;19.60;14.77;;;3.70;99.90;;;;;;6253811;23;20521;-53
2021/11/29 02:37:06;;;;;;;24.77;16.83;;;3.80;99.90;;;;;;6253919;22;20446;-53
2021/11/29 02:39:34;;;;;;;22.20;16.88;;;4.00;99.90;;;;;;6253074;22;20153;-54
2021/11/29 02:42:03;;;;;;;19.65;14.73;;;4.10;99.90;;;;;;6244006;22;20200;-54
2021/11/29 02:44:28;;;;;;;19.73;15.50;;;3.70;99.90;;;;;;6242564;22;20185;-54
2021/11/29 02:46:54;;;;;;;20.60;16.47;;;3.00;99.90;;;;;;6252623;23;20167;-54
2021/11/29 02:49:20;;;;;;;19.67;14.95;;;3.60;99.90;;;;;;6254446;22;20145;-53
2021/11/29 02:51:49;;;;;;;18.93;14.57;;;3.60;99.90;;;;;;6254244;23;20169;-54
2021/11/29 02:54:26;;;;;;;24.98;16.85;;;3.80;99.90;;;;;;6254015;22;20157;-53
2021/11/29 02:56:56;;;;;;;22.80;16.40;;;3.80;99.90;;;;;;6253138;22;20524;-54
2021/11/29 02:59:27;;;;;;;26.17;17.98;;;3.60;99.90;;;;;;6253316;23;20183;-54
2021/11/29 03:02:02;;;;;;;23.05;16.63;;;3.80;99.90;;;;;;6253922;22;20173;-53
2021/11/29 03:04:29;;;;;;;23.95;17.15;;;3.90;99.90;;;;;;6253324;22;20164;-53
2021/11/29 03:06:56;;;;;;;21.48;16.33;;;3.80;99.90;;;;;;6252985;22;20479;-54
2021/11/29 03:09:23;;;;;;;21.52;17.17;;;4.00;99.90;;;;;;6253212;22;20153;-54
2021/11/29 03:11:49;;;;;;;21.70;17.38;;;4.00;99.90;;;;;;6254263;22;20514;-54
2021/11/29 03:14:17;;;;;;;27.35;16.55;;;3.20;99.90;;;;;;6254019;22;20178;-54
2021/11/29 03:16:43;;;;;;;25.05;16.75;;;3.60;99.90;;;;;;6253506;22;20169;-54
2021/11/29 03:19:08;;;;;;;22.00;14.85;;;3.90;99.90;;;;;;6242540;22;20167;-54
2021/11/29 03:21:34;;;;;;;23.50;15.77;;;3.70;99.90;;;;;;6253525;23;20176;-54
2021/11/29 03:24:03;;;;;;;19.42;15.50;;;3.80;99.90;;;;;;6242985;23;20207;-54
2021/11/29 03:26:30;;;;;;;19.67;15.88;;;3.80;99.90;;;;;;6253017;22;20615;-54
2021/11/29 03:28:59;;;;;;;22.00;15.55;;;3.60;99.90;;;;;;6243236;22;20176;-54
2021/11/29 03:31:27;;;;;;;23.27;15.93;;;3.80;99.90;;;;;;6243545;22;20204;-54
2021/11/29 03:33:56;;;;;;;23.08;16.85;;;3.80;99.90;;;;;;6253418;22;20486;-53
2021/11/29 03:36:27;;;;;;;21.98;17.10;;;3.70;99.90;;;;;;6253303;22;20231;-54
2021/11/29 03:38:54;;;;;;;21.33;16.27;;;3.60;99.90;;;;;;6242838;22;20149;-54
2021/11/29 03:41:21;;;;;;;24.40;17.08;;;3.80;99.90;;;;;;6253493;22;20161;-53
2021/11/29 03:43:47;;;;;;;22.95;17.38;;;3.90;99.90;;;;;;6253161;22;20150;-54
2021/11/29 03:46:13;;;;;;;18.90;15.10;;;3.70;99.90;;;;;;6242731;22;20164;-53
2021/11/29 03:48:39;;;;;;;22.55;17.77;;;3.70;99.90;;;;;;6252519;23;20177;-54
2021/11/29 03:51:05;;;;;;;26.70;18.03;;;3.70;99.90;;;;;;6253482;23;20169;-54
2021/11/29 03:53:31;;;;;;;20.30;15.30;;;3.80;99.90;;;;;;6243271;23;20149;-54
2021/11/29 03:55:56;;;;;;;21.60;15.07;;;3.80;99.90;;;;;;6253051;23;20415;-54
2021/11/29 03:58:23;;;;;;;25.90;16.03;;;3.70;99.90;;;;;;6252475;23;20380;-54
2021/11/29 04:00:48;;;;;;;23.00;16.95;;;3.70;99.90;;;;;;6252758;23;20177;-54
2021/11/29 04:03:14;;;;;;;20.77;16.02;;;3.60;99.90;;;;;;6253453;22;20153;-53
2021/11/29 04:05:40;;;;;;;22.23;17.07;;;3.50;99.90;;;;;;6252368;23;20246;-54
2021/11/29 04:08:06;;;;;;;21.63;16.53;;;3.40;99.90;;;;;;6253015;23;20156;-54
2021/11/29 04:10:32;;;;;;;22.67;15.27;;;3.60;99.90;;;;;;6252801;23;20291;-54
2021/11/29 04:12:58;;;;;;;26.77;17.02;;;3.70;99.90;;;;;;6253609;22;20272;-54
2021/11/29 04:15:24;;;;;;;20.97;15.10;;;3.50;99.90;;;;;;6242736;23;20219;-56
2021/11/29 04:17:52;;;;;;;23.27;16.43;;;3.80;99.90;;;;;;6251566;23;20215;-54
2021/11/29 04:20:18;;;;;;;22.60;18.08;;;3.40;99.90;;;;;;6242107;22;20628;-54
2021/11/29 04:22:45;;;;;;;24.15;17.63;;;3.90;99.90;;;;;;6253269;22;20153;-54
2021/11/29 04:25:17;;;;;;;18.02;15.32;;;3.30;99.90;;;;;;6252146;22;20465;-54
2021/11/29 04:27:43;;;;;;;19.05;14.52;;;3.40;99.90;;;;;;6252668;22;20141;-54
2021/11/29 04:30:18;;;;;;;19.63;15.43;;;3.90;99.90;;;;;;6253427;22;20153;-54
2021/11/29 04:32:47;;;;;;;22.40;16.67;;;3.90;99.90;;;;;;6252750;22;20152;-53
2021/11/29 04:35:13;;;;;;;21.08;14.93;;;3.20;99.90;;;;;;6253354;22;20153;-54
2021/11/29 04:37:38;;;;;;;20.60;15.15;;;3.70;99.90;;;;;;6252048;22;20236;-54
2021/11/29 04:40:05;;;;;;;22.83;15.80;;;3.60;99.90;;;;;;6241665;22;20172;-54
2021/11/29 04:42:31;;;;;;;21.90;15.80;;;3.90;99.90;;;;;;6253313;22;20392;-54
2021/11/29 04:44:57;;;;;;;22.80;14.87;;;3.80;99.90;;;;;;6252643;23;20232;-53
2021/11/29 04:47:23;;;;;;;21.25;15.63;;;3.80;99.90;;;;;;6252256;22;20195;-53
2021/11/29 04:49:49;;;;;;;19.10;15.10;;;3.80;99.90;;;;;;6252668;23;20174;-53
2021/11/29 04:52:15;;;;;;;21.05;15.30;;;4.10;99.90;;;;;;6243166;22;20164;-53
2021/11/29 04:54:40;;;;;;;23.90;16.90;;;3.80;99.90;;;;;;6242396;23;20161;-54
2021/11/29 04:57:06;;;;;;;22.40;14.20;;;4.10;99.90;;;;;;6252120;23;20153;-54
2021/11/29 04:59:32;;;;;;;18.65;14.45;;;4.10;99.90;;;;;;6242163;22;20211;-52
2021/11/29 05:02:00;;;;;;;20.83;16.30;;;3.60;99.90;;;;;;6251792;23;20169;-53
2021/11/29 05:04:25;;;;;;;22.35;14.43;;;3.90;99.90;;;;;;6252552;22;20565;-53
2021/11/29 05:06:51;;;;;;;16.53;12.97;;;4.00;99.90;;;;;;6240241;23;20157;-54
2021/11/29 05:09:17;;;;;;;17.27;13.00;;;4.00;99.90;;;;;;6252754;22;20149;-53
2021/11/29 05:11:42;;;;;;;17.83;13.47;;;4.00;99.90;;;;;;6252794;23;20407;-53
2021/11/29 05:14:08;;;;;;;18.97;14.60;;;4.10;99.90;;;;;;6253020;23;20585;-54
2021/11/29 05:16:35;;;;;;;18.63;14.37;;;3.90;99.90;;;;;;6252437;22;20195;-53
2021/11/29 05:19:01;;;;;;;18.55;13.15;;;3.20;99.90;;;;;;6250824;22;20372;-54
2021/11/29 05:21:27;;;;;;;19.23;13.77;;;3.90;99.90;;;;;;6252349;23;20651;-54
2021/11/29 05:23:53;;;;;;;16.73;12.90;;;3.80;99.90;;;;;;6252192;22;20201;-53
2021/11/29 05:26:24;;;;;;;21.20;12.83;;;3.30;99.90;;;;;;6251373;23;20596;-54
2021/11/29 05:28:52;;;;;;;19.08;13.60;;;4.00;99.90;;;;;;6252139;22;20138;-54
2021/11/29 05:31:18;;;;;;;17.40;12.82;;;3.60;99.90;;;;;;6252591;22;20497;-54
2021/11/29 05:33:45;;;;;;;18.10;13.45;;;3.80;99.90;;;;;;6251661;22;20615;-54
2021/11/29 05:36:10;;;;;;;18.63;13.48;;;3.60;99.90;;;;;;6239951;23;20596;-55
2021/11/29 05:38:36;;;;;;;22.70;14.87;;;3.10;99.90;;;;;;6253418;23;20172;-55
2021/11/29 05:41:03;;;;;;;16.10;13.23;;;3.60;99.90;;;;;;6242190;23;20210;-55
2021/11/29 05:43:29;;;;;;;19.42;14.32;;;4.00;99.90;;;;;;6254424;22;20422;-55
2021/11/29 05:45:54;;;;;;;16.88;13.38;;;4.10;99.90;;;;;;6254272;22;20173;-54
2021/11/29 05:48:20;;;;;;;19.40;13.80;;;3.80;99.90;;;;;;6254148;23;20149;-54
2021/11/29 05:50:46;;;;;;;21.27;14.97;;;3.20;99.90;;;;;;6253785;23;20658;-55
2021/11/29 05:53:11;;;;;;;17.93;13.13;;;3.40;99.90;;;;;;6253717;23;20176;-54
2021/11/29 05:55:37;;;;;;;17.90;14.13;;;3.90;99.90;;;;;;6253978;23;21018;-55
2021/11/29 05:58:03;;;;;;;19.13;13.90;;;3.90;99.90;;;;;;6243739;22;20232;-54
2021/11/29 06:00:30;;;;;;;17.37;13.03;;;3.60;99.90;;;;;;6242109;23;20419;-54
2021/11/29 06:02:56;;;;;;;18.70;13.98;;;3.80;99.90;;;;;;6254668;22;20153;-54
2021/11/29 06:05:23;;;;;;;18.00;12.68;;;3.80;99.90;;;;;;6254185;22;20195;-54
2021/11/29 06:07:49;;;;;;;16.00;11.82;;;3.60;99.90;;;;;;6253853;22;20153;-54
2021/11/29 06:10:15;;;;;;;18.50;14.05;;;3.60;99.90;;;;;;6253553;22;20509;-54
2021/11/29 06:12:46;;;;;;;15.90;12.55;;;3.70;99.90;;;;;;6254126;22;20145;-54
2021/11/29 06:15:13;;;;;;;19.45;13.90;;;3.80;99.90;;;;;;6254166;22;20207;-54
2021/11/29 06:17:39;;;;;;;19.10;12.32;;;3.40;99.90;;;;;;6241599;23;20517;-54
2021/11/29 06:20:06;;;;;;;19.48;11.65;;;3.60;99.90;;;;;;6253362;22;20177;-54
2021/11/29 06:22:32;;;;;;;17.45;13.25;;;3.60;99.90;;;;;;6254344;22;20200;-54
2021/11/29 06:24:58;;;;;;;20.83;14.32;;;3.20;99.90;;;;;;6254110;22;20173;-55
2021/11/29 06:27:24;;;;;;;18.17;12.10;;;3.50;99.90;;;;;;6253207;23;20168;-54
2021/11/29 06:29:53;;;;;;;16.10;10.83;;;3.20;99.90;;;;;;6243291;22;20168;-54
2021/11/29 06:32:19;;;;;;;17.52;12.15;;;3.80;99.90;;;;;;6253652;23;20827;-55
2021/11/29 06:34:44;;;;;;;16.33;11.88;;;3.70;99.90;;;;;;6243718;22;20207;-55
2021/11/29 06:37:11;;;;;;;14.73;10.70;;;3.60;99.90;;;;;;6253516;23;20608;-55
2021/11/29 06:39:38;;;;;;;14.52;11.23;;;4.10;99.90;;;;;;6253704;22;20395;-55
2021/11/29 06:42:05;;;;;;;18.58;11.93;;;3.90;99.90;;;;;;6243685;22;20177;-55
2021/11/29 06:44:31;;;;;;;14.57;12.00;;;3.70;99.90;;;;;;6243442;22;20184;-53
2021/11/29 06:46:57;;;;;;;18.33;13.13;;;3.70;99.90;;;;;;6252911;22;20224;-55
2021/11/29 06:49:23;;;;;;;13.10;10.87;;;3.80;99.90;;;;;;6241909;23;20254;-54
2021/11/29 06:51:49;;;;;;;17.87;11.50;;;3.50;99.90;;;;;;6253622;23;20479;-55
2021/11/29 06:54:16;;;;;;;13.65;11.18;;;3.80;99.90;;;;;;6241143;23;20494;-54
2021/11/29 06:56:41;;;;;;;17.17;11.07;;;3.50;99.90;;;;;;6252895;22;20513;-54
2021/11/29 06:59:08;;;;;;;13.30;10.20;;;3.10;99.90;;;;;;6253924;23;20153;-54
2021/11/29 07:01:34;;;;;;;15.50;10.93;;;3.50;99.90;;;;;;6243131;22;20178;-53
2021/11/29 07:04:00;;;;;;;13.23;10.57;;;3.10;99.90;;;;;;6253207;22;20163;-53
2021/11/29 07:06:26;;;;;;;12.15;9.07;;;3.50;99.90;;;;;;6253052;22;20153;-54
2021/11/29 07:08:53;;;;;;;14.07;10.07;;;3.00;99.90;;;;;;6253414;22;20592;-54
2021/11/29 07:11:19;;;;;;;16.90;10.55;;;3.90;99.90;;;;;;6242792;22;20628;-53
2021/11/29 07:13:45;;;;;;;11.63;9.20;;;4.30;99.90;;;;;;6243441;22;20156;-52
2021/11/29 07:16:11;;;;;;;14.93;9.63;;;4.70;99.90;;;;;;6249864;22;20169;-55
2021/11/29 07:18:36;;;;;;;9.90;8.63;;;4.30;99.90;;;;;;6251776;23;20554;-55
2021/11/29 07:21:02;;;;;;;10.90;8.30;;;4.40;99.90;;;;;;6252732;23;20866;-56
2021/11/29 07:23:28;;;;;;;14.37;8.50;;;3.60;99.90;;;;;;6252762;22;20541;-55
2021/11/29 07:25:53;;;;;;;12.83;8.50;;;4.40;99.90;;;;;;6252183;23;20454;-51
2021/11/29 07:28:19;;;;;;;13.10;8.50;;;4.20;99.90;;;;;;6252408;23;20616;-50
2021/11/29 07:30:45;;;;;;;13.00;8.93;;;4.50;99.90;;;;;;6252509;22;20187;-51
2021/11/29 07:33:11;;;;;;;13.57;8.47;;;4.40;99.90;;;;;;6241154;23;20392;-51
2021/11/29 07:35:37;;;;;;;11.57;9.45;;;4.60;99.90;;;;;;6252320;22;20200;-51
2021/11/29 07:38:03;;;;;;;13.00;7.40;;;4.00;99.90;;;;;;6252884;23;20518;-51
2021/11/29 07:40:31;;;;;;;9.05;7.95;;;4.40;99.90;;;;;;6252071;22;20326;-52
2021/11/29 07:43:03;;;;;;;11.55;7.07;;;4.70;99.90;;;;;;6252616;23;20153;-52
2021/11/29 07:45:29;;;;;;;9.25;7.35;;;4.60;99.90;;;;;;6240872;23;20520;-51
2021/11/29 07:47:55;;;;;;;11.00;7.65;;;4.80;99.90;;;;;;6252016;22;20199;-53
2021/11/29 07:50:21;;;;;;;9.52;6.65;;;3.80;99.90;;;;;;6252578;22;20170;-55
2021/11/29 07:52:48;;;;;;;9.40;7.05;;;4.20;99.90;;;;;;6252148;22;20153;-53
2021/11/29 07:55:18;;;;;;;10.05;7.15;;;4.30;99.90;;;;;;6252467;22;20199;-53
2021/11/29 07:57:44;;;;;;;11.70;7.38;;;4.00;99.90;;;;;;6252248;22;20180;-53
2021/11/29 08:00:17;;;;;;;10.43;7.47;;;4.00;99.90;;;;;;6239973;23;20172;-55
2021/11/29 08:02:45;;;;;;;10.63;6.90;;;4.40;99.90;;;;;;6252703;22;20133;-53
2021/11/29 08:05:10;;;;;;;12.50;6.30;;;4.00;99.90;;;;;;6252157;22;20204;-54
2021/11/29 08:07:36;;;;;;;10.67;7.47;;;4.00;99.90;;;;;;6241746;23;20154;-54
2021/11/29 08:10:03;;;;;;;9.07;5.70;;;3.90;99.90;;;;;;6252130;23;20149;-54
2021/11/29 08:12:29;;;;;;;14.10;6.88;;;3.70;99.90;;;;;;6253479;22;20158;-55
2021/11/29 08:14:55;;;;;;;9.50;6.70;;;3.80;99.90;;;;;;6252646;23;20158;-53
2021/11/29 08:17:20;;;;;;;9.43;7.00;;;3.70;99.90;;;;;;6251940;23;20460;-53
2021/11/29 08:19:47;;;;;;;9.80;6.50;;;3.80;99.90;;;;;;6251486;23;20559;-55
2021/11/29 08:22:13;;;;;;;9.93;7.13;;;4.00;99.90;;;;;;6252590;22;20454;-54
2021/11/29 08:24:40;;;;;;;9.65;6.35;;;4.10;99.90;;;;;;6251247;22;20173;-54
2021/11/29 08:27:06;;;;;;;9.00;6.55;;;3.90;99.90;;;;;;6239829;23;20477;-53
2021/11/29 08:29:32;;;;;;;11.18;6.43;;;3.90;99.90;;;;;;6240550;23;20153;-53
2021/11/29 08:31:58;;;;;;;10.10;6.60;;;4.20;99.90;;;;;;6252866;23;20639;-54
2021/11/29 08:34:24;;;;;;;9.48;6.85;;;4.30;99.90;;;;;;6251556;22;20466;-54
2021/11/29 08:36:50;;;;;;;11.27;6.82;;;4.30;99.90;;;;;;6251824;22;20165;-54
2021/11/29 08:39:16;;;;;;;8.13;6.07;;;4.50;99.90;;;;;;6250136;23;20202;-54
2021/11/29 08:41:41;;;;;;;8.83;6.10;;;4.70;99.90;;;;;;6251461;22;20404;-53
2021/11/29 08:44:07;;;;;;;9.40;6.30;;;4.80;99.90;;;;;;6252243;23;20619;-53
2021/11/29 08:46:33;;;;;;;7.87;5.93;;;4.30;99.90;;;;;;6251878;23;20173;-55
2021/11/29 08:48:59;;;;;;;6.95;5.80;;;4.90;99.90;;;;;;6251597;22;20413;-54
2021/11/29 08:51:25;;;;;;;7.93;5.85;;;4.70;99.90;;;;;;6239804;23;20209;-55
2021/11/29 08:53:51;;;;;;;7.83;6.10;;;4.40;99.90;;;;;;6251611;23;20152;-55
2021/11/29 08:56:17;;;;;;;9.43;6.45;;;4.40;99.90;;;;;;6251625;22;20384;-55
2021/11/29 08:58:43;;;;;;;7.33;5.93;;;5.10;99.90;;;;;;6251815;23;20156;-55
2021/11/29 09:01:09;;;;;;;6.72;5.65;;;5.00;99.90;;;;;;6252206;22;20404;-54
2021/11/29 09:03:35;;;;;;;8.23;6.67;;;4.40;99.90;;;;;;6251532;23;20160;-57
2021/11/29 09:06:00;;;;;;;9.13;5.90;;;4.80;99.90;;;;;;6251710;23;20181;-55
2021/11/29 09:08:27;;;;;;;8.27;6.00;;;4.70;99.90;;;;;;6251930;23;20152;-54
2021/11/29 09:10:53;;;;;;;7.40;6.47;;;4.70;99.90;;;;;;6251593;22;20310;-55
2021/11/29 09:13:20;;;;;;;10.43;6.53;;;5.20;99.90;;;;;;6252045;22;20158;-54
2021/11/29 09:15:47;;;;;;;8.10;6.35;;;4.90;99.90;;;;;;6239703;23;20454;-53
2021/11/29 09:18:14;;;;;;;8.77;5.90;;;5.50;99.90;;;;;;6251126;22;20209;-55
2021/11/29 09:20:41;;;;;;;7.50;5.82;;;6.10;99.90;;;;;;6252009;22;20623;-55
2021/11/29 09:23:08;;;;;;;6.72;5.72;;;6.60;99.90;;;;;;6240410;23;20161;-56
2021/11/29 09:25:41;;;;;;;5.93;5.00;;;7.10;99.90;;;;;;6239616;23;20264;-56
2021/11/29 09:28:10;;;;;;;6.53;4.55;;;7.60;99.00;;;;;;6251957;22;20126;-54
2021/11/29 09:30:37;;;;;;;5.03;4.53;;;8.00;97.70;;;;;;6251714;22;20240;-55
2021/11/29 09:33:03;;;;;;;6.00;4.47;;;8.30;96.90;;;;;;6241898;22;20160;-53
2021/11/29 09:35:29;;;;;;;7.43;4.00;;;8.50;96.00;;;;;;6252038;22;20472;-53
2021/11/29 09:37:56;;;;;;;5.10;3.47;;;8.50;95.90;;;;;;6251659;22;20176;-55
2021/11/29 09:40:25;;;;;;;5.32;3.55;;;9.10;95.00;;;;;;6251751;23;20404;-54
2021/11/29 09:42:52;;;;;;;4.75;4.00;;;9.10;93.80;;;;;;6252171;22;20168;-54
2021/11/29 09:45:21;;;;;;;8.27;4.95;;;8.80;94.30;;;;;;6240092;22;20192;-55
2021/11/29 09:47:48;;;;;;;4.45;3.75;;;8.40;94.80;;;;;;6251440;22;20149;-55
2021/11/29 09:50:14;;;;;;;6.00;3.63;;;8.30;95.30;;;;;;6239967;23;20280;-56
2021/11/29 09:52:40;;;;;;;5.07;3.70;;;8.40;94.70;;;;;;6251232;22;20588;-55
2021/11/29 09:55:10;;;;;;;4.57;3.63;;;8.90;95.10;;;;;;6251660;23;20151;-54
2021/11/29 09:57:39;;;;;;;4.93;3.55;;;9.60;93.50;;;;;;6251759;23;20395;-54
2021/11/29 10:00:07;;;;;;;5.13;3.60;;;9.10;93.70;;;;;;6251750;22;20160;-55
2021/11/29 10:02:33;;;;;;;6.57;4.47;;;8.80;94.40;;;;;;6252375;22;20153;-54
2021/11/29 10:04:58;;;;;;;5.10;3.20;;;8.90;94.60;;;;;;6252120;23;20670;-54
2021/11/29 10:07:35;;;;;;;5.47;3.50;;;8.40;94.70;;;;;;6241052;23;20215;-54
2021/11/29 10:10:16;;;;;;;6.03;4.00;;;8.50;95.10;;;;;;6251301;22;20462;-54
2021/11/29 10:12:42;;;;;;;6.80;4.15;;;8.10;95.70;;;;;;6252086;23;20142;-54
2021/11/29 10:15:17;;;;;;;4.30;3.35;;;7.20;96.40;;;;;;6251733;22;20157;-56
2021/11/29 10:17:44;;;;;;;4.18;3.25;;;7.20;96.90;;;;;;6251387;22;20160;-54
2021/11/29 10:20:09;;;;;;;4.93;3.53;;;7.50;96.90;;;;;;6251742;22;20179;-54
2021/11/29 10:22:35;;;;;;;4.97;4.13;;;7.60;97.10;;;;;;6239693;23;20248;-53
2021/11/29 10:25:16;;;;;;;4.00;3.50;;;7.40;97.60;;;;;;6253427;22;20177;-53
2021/11/29 10:27:44;;;;;;;5.22;3.45;;;7.70;97.10;;;;;;6241394;23;20149;-54
2021/11/29 10:30:14;;;;;;;4.82;2.80;;;7.80;97.10;;;;;;6253487;22;20184;-56
2021/11/29 10:32:43;;;;;;;4.15;3.55;;;8.10;96.30;;;;;;6253311;22;20149;-56
2021/11/29 10:35:11;;;;;;;5.30;3.42;;;8.20;94.90;;;;;;6253659;22;20172;-55
2021/11/29 10:37:39;;;;;;;6.22;3.80;;;8.30;95.30;;;;;;6252455;22;20639;-54
2021/11/29 10:40:11;;;;;;;3.65;3.35;;;8.20;95.30;;;;;;6252249;22;20344;-55
2021/11/29 10:42:37;;;;;;;4.10;3.25;;;7.90;95.90;;;;;;6243024;22;20173;-56
2021/11/29 10:45:07;;;;;;;6.07;3.25;;;7.70;96.20;;;;;;6253260;22;20734;-52
2021/11/29 10:47:34;;;;;;;4.10;2.78;;;7.80;95.50;;;;;;6252983;22;20142;-52
2021/11/29 10:50:04;;;;;;;4.47;3.03;;;7.80;95.80;;;;;;6242435;22;20664;-55
2021/11/29 10:52:35;;;;;;;3.20;2.90;;;7.50;95.20;;;;;;6241846;22;20236;-55
2021/11/29 10:55:03;;;;;;;4.63;3.10;;;7.60;96.30;;;;;;6253142;22;20161;-54
2021/11/29 10:57:29;;;;;;;3.58;3.00;;;6.80;96.50;;;;;;6252473;22;20164;-56
2021/11/29 10:59:59;;;;;;;7.00;4.40;;;7.30;97.80;;;;;;6251495;22;20156;-54
2021/11/29 11:02:32;;;;;;;6.50;3.90;;;7.50;97.80;;;;;;6240236;23;20251;-54
2021/11/29 11:05:21;;;;;;;3.67;3.03;;;7.60;96.60;;;;;;6252934;22;20183;-55
2021/11/29 11:07:50;;;;;;;6.70;2.63;;;7.60;96.40;;;;;;6242104;22;20149;-56
2021/11/29 11:10:16;;;;;;;4.95;3.17;;;7.30;96.10;;;;;;6242778;22;20176;-55
2021/11/29 11:12:42;;;;;;;3.40;3.10;;;7.20;96.00;;;;;;6241307;23;20164;-55
2021/11/29 11:15:17;;;;;;;6.43;3.63;;;7.20;96.70;;;;;;6242473;22;20154;-55
2021/11/29 11:17:51;;;;;;;3.65;3.20;;;6.90;96.80;;;;;;6239530;23;20197;-54
2021/11/29 11:20:17;;;;;;;5.85;3.55;;;6.40;97.30;;;;;;6249607;22;20226;-56
2021/11/29 11:22:49;;;;;;;3.47;3.17;;;6.40;97.30;;;;;;6242142;22;20569;-55
2021/11/29 11:25:26;;;;;;;5.13;3.72;;;6.60;98.40;;;;;;6241774;22;20192;-54
2021/11/29 11:27:59;;;;;;;7.32;4.45;;;6.60;98.90;;;;;;6252303;22;20141;-54
2021/11/29 11:30:27;;;;;;;6.22;3.90;;;6.30;99.20;;;;;;6252339;22;20171;-56
2021/11/29 11:33:00;;;;;;;5.90;4.88;;;6.00;99.60;;;;;;6252671;22;20451;-55
2021/11/29 11:35:32;;;;;;;3.92;3.40;;;5.60;99.90;;;;;;6242315;22;20157;-56
2021/11/29 11:38:09;;;;;;;5.65;3.95;;;5.60;99.90;;;;;;6251535;22;20165;-54
2021/11/29 11:40:38;;;;;;;6.20;4.13;;;5.70;99.90;;;;;;6242659;23;20498;-54
2021/11/29 11:43:07;;;;;;;5.40;4.10;;;5.70;99.90;;;;;;6253481;22;20151;-55
2021/11/29 11:45:38;;;;;;;5.75;3.47;;;5.50;99.90;;;;;;6252822;22;20174;-55
2021/11/29 11:48:05;;;;;;;4.38;3.97;;;5.30;99.90;;;;;;6250537;23;20153;-54
2021/11/29 11:50:34;;;;;;;7.38;4.35;;;5.50;99.90;;;;;;6250554;22;20168;-56
2021/11/29 11:53:02;;;;;;;5.85;3.88;;;5.30;99.90;;;;;;6251414;22;20149;-54
2021/11/29 11:55:33;;;;;;;6.10;4.30;;;4.90;99.90;;;;;;6239580;23;20167;-54
2021/11/29 11:58:11;;;;;;;4.63;3.60;;;5.70;99.90;;;;;;6252515;22;20184;-54
2021/11/29 12:00:58;;;;;;;4.80;3.55;;;5.70;99.90;;;;;;6251852;22;20170;-55
2021/11/29 12:03:28;;;;;;;7.95;4.07;;;5.60;99.90;;;;;;6252771;22;20142;-55
2021/11/29 12:05:55;;;;;;;5.75;3.35;;;5.20;99.90;;;;;;6241634;22;20521;-55
2021/11/29 12:08:27;;;;;;;5.85;4.10;;;5.50;99.90;;;;;;6240552;23;20593;-53
2021/11/29 12:10:53;;;;;;;4.82;3.20;;;5.30;99.90;;;;;;6252071;23;20508;-54
2021/11/29 12:13:20;;;;;;;3.53;3.20;;;5.50;99.70;;;;;;6249760;23;20336;-55
2021/11/29 12:15:49;;;;;;;3.72;2.88;;;5.50;99.30;;;;;;6251797;22;20158;-55
2021/11/29 12:18:41;;;;;;;3.53;3.10;;;5.50;99.80;;;;;;6239423;23;20148;-55
2021/11/29 12:21:16;;;;;;;7.38;3.45;;;5.90;99.50;;;;;;6224474;23;20209;-55
2021/11/29 12:24:11;;;;;;;7.40;2.85;;;6.10;99.50;;;;;;6240076;23;20154;-53
2021/11/29 12:26:46;;;;;;;4.07;2.80;;;6.10;99.90;;;;;;6252840;22;20218;-54
2021/11/29 12:29:21;;;;;;;4.40;3.38;;;6.10;99.70;;;;;;6252270;22;20269;-56
2021/11/29 12:32:07;;;;;;;4.80;4.40;;;6.00;99.70;;;;;;6251927;22;20165;-56
2021/11/29 12:37:17;;;;;;;4.55;3.35;;;6.30;99.80;;;;;;6252140;23;20170;-54
2021/11/29 12:39:49;;;;;;;5.70;3.55;;;5.80;99.10;;;;;;6240904;22;20186;-53
2021/11/29 12:42:22;;;;;;;5.47;3.45;;;5.90;99.30;;;;;;6242835;23;20230;-52
2021/11/29 12:44:50;;;;;;;3.50;3.15;;;6.00;99.50;;;;;;6240057;23;20188;-54
2021/11/29 12:47:18;;;;;;;3.70;2.90;;;5.50;99.60;;;;;;6252109;22;20161;-52
2021/11/29 12:49:44;;;;;;;3.83;2.80;;;5.60;99.80;;;;;;6238836;23;20494;-53